TimeAKDT,TemperatureF,Dew PointF,Humidity,Sea Level PressureIn,VisibilityMPH,Wind Direction,Wind SpeedMPH,Gust SpeedMPH,PrecipitationIn,Events,Conditions,WindDirDegrees,DateUTC
12:53 AM,37.0,19.0,48,29.54,10.0,West,9.2,-,N/A,,Overcast,270,2013-05-13 08:53:00
1:53 AM,35.1,9.0,34,29.56,10.0,West,16.1,-,N/A,,Overcast,280,2013-05-13 09:53:00
2:53 AM,33.1,3.9,29,29.59,10.0,West,13.8,20.7,N/A,,Overcast,280,2013-05-13 10:53:00
3:53 AM,30.0,1.9,30,29.60,10.0,WNW,13.8,-,N/A,,Mostly Cloudy,300,2013-05-13 11:53:00
4:53 AM,27.0,3.0,36,29.63,10.0,West,10.4,-,N/A,,Mostly Cloudy,270,2013-05-13 12:53:00
5:53 AM,25.0,3.9,41,29.65,10.0,WNW,12.7,-,N/A,,Mostly Cloudy,290,2013-05-13 13:53:00
6:53 AM,24.1,1.0,37,29.67,10.0,West,13.8,-,N/A,,Mostly Cloudy,280,2013-05-13 14:53:00
7:53 AM,21.9,3.9,46,29.69,10.0,West,12.7,-,N/A,,Mostly Cloudy,260,2013-05-13 15:53:00
8:53 AM,23.0,3.9,44,29.70,10.0,WSW,9.2,-,N/A,,Scattered Clouds,250,2013-05-13 16:53:00
9:53 AM,25.0,3.9,41,29.70,10.0,WSW,11.5,18.4,N/A,,Scattered Clouds,250,2013-05-13 17:53:00
10:53 AM,26.1,3.9,39,29.69,10.0,WSW,8.1,-,N/A,,Scattered Clouds,250,2013-05-13 18:53:00
12:53 PM,28.0,5.0,38,29.68,10.0,WSW,11.5,-,N/A,,Scattered Clouds,250,2013-05-13 20:53:00
1:53 PM,30.9,8.1,38,29.68,10.0,Variable,6.9,16.1,N/A,,Partly Cloudy,0,2013-05-13 21:53:00
2:53 PM,32.0,8.1,37,29.66,10.0,SW,9.2,-,N/A,,Partly Cloudy,220,2013-05-13 22:53:00
3:53 PM,32.0,6.8,35,29.62,10.0,WNW,6.9,-,N/A,,Partly Cloudy,290,2013-05-13 23:53:00
4:53 PM,33.1,8.1,35,29.64,10.0,Variable,3.5,-,N/A,,Partly Cloudy,0,2013-05-14 00:53:00
5:53 PM,34.0,9.0,35,29.64,10.0,Variable,3.5,-,N/A,,Partly Cloudy,0,2013-05-14 01:53:00
6:53 PM,35.1,9.0,34,29.63,10.0,Variable,3.5,-,N/A,,Partly Cloudy,0,2013-05-14 02:53:00
7:53 PM,35.1,9.0,34,29.63,10.0,WNW,8.1,-,N/A,,Partly Cloudy,290,2013-05-14 03:53:00
8:53 PM,34.0,8.1,34,29.64,10.0,WNW,8.1,-,N/A,,Scattered Clouds,300,2013-05-14 04:53:00
9:53 PM,33.1,8.1,35,29.65,10.0,West,6.9,-,N/A,,Scattered Clouds,280,2013-05-14 05:53:00
10:53 PM,30.9,12.0,46,29.66,10.0,WSW,3.5,-,N/A,,Mostly Cloudy,240,2013-05-14 06:53:00
11:53 PM,28.0,14.0,56,29.66,10.0,NW,3.5,-,N/A,,Mostly Cloudy,310,2013-05-14 07:53:00